Time;durP1;ratioP1;P1;durP2;ratioP2;P2;SDS_P1;SDS_P2;PMS_P1;PMS_P2;Temp;Humidity;BMP_temperature;BMP_pressure;BME280_temperature;BME280_humidity;BME280_pressure;Samples;Min_cycle;Max_cycle;Signal;HPM_P1;HPM_P2
2022/03/23 00:00:58;;;;;;;42.97;24.70;;;;;;;0.79;56.12;102239.25;1698009;84;21208;-75
2022/03/23 00:03:26;;;;;;;46.00;24.40;;;;;;;0.76;56.36;102247.77;1698221;84;21047;-77
2022/03/23 00:05:54;;;;;;;44.77;24.90;;;;;;;0.74;56.55;102242.96;1698082;84;21032;-77
2022/03/23 00:08:22;;;;;;;49.47;27.93;;;;;;;0.68;56.30;102241.48;1714375;82;21035;-77
2022/03/23 00:10:51;;;;;;;48.63;25.10;;;;;;;0.69;56.31;102234.19;1725215;83;21004;-78
2022/03/23 00:13:19;;;;;;;41.67;24.37;;;;;;;0.72;56.32;102236.90;1725307;82;21100;-78
2022/03/23 00:15:49;;;;;;;47.73;25.40;;;;;;;0.70;56.05;102234.67;1725021;83;21552;-78
2022/03/23 00:18:17;;;;;;;47.63;27.47;;;;;;;0.64;56.08;102229.31;1725295;83;21494;-76
2022/03/23 00:20:45;;;;;;;43.63;24.97;;;;;;;0.55;55.95;102228.57;1725198;83;21063;-77
2022/03/23 00:23:13;;;;;;;46.73;25.57;;;;;;;0.54;56.08;102227.25;1725302;83;21059;-78
2022/03/23 00:25:41;;;;;;;44.37;24.87;;;;;;;0.46;55.98;102228.27;1725099;83;21975;-74
2022/03/23 00:28:09;;;;;;;48.37;27.37;;;;;;;0.37;55.82;102227.55;1724970;83;21354;-75
2022/03/23 00:30:38;;;;;;;49.40;26.47;;;;;;;0.35;56.16;102218.01;1725091;82;20969;-78
2022/03/23 00:33:05;;;;;;;52.40;27.67;;;;;;;0.33;56.06;102221.81;1725011;83;21087;-79
2022/03/23 00:35:33;;;;;;;53.43;27.90;;;;;;;0.30;56.27;102220.84;1725072;82;20988;-79
2022/03/23 00:38:01;;;;;;;51.77;27.73;;;;;;;0.29;56.48;102211.36;1724998;82;21297;-78
2022/03/23 00:40:30;;;;;;;51.03;27.40;;;;;;;0.27;56.35;102215.58;1725037;82;21345;-75
2022/03/23 00:43:01;;;;;;;46.17;26.80;;;;;;;0.20;56.33;102208.92;1725025;82;21066;-78
2022/03/23 00:45:29;;;;;;;49.00;27.33;;;;;;;0.13;56.35;102207.36;1725306;82;21067;-77
2022/03/23 00:48:00;;;;;;;46.37;25.87;;;;;;;0.04;56.25;102212.21;1725094;82;21494;-77
2022/03/23 00:50:28;;;;;;;49.07;26.03;;;;;;;-0.03;56.47;102200.41;1725232;82;21936;-78
2022/03/23 00:52:55;;;;;;;51.37;28.70;;;;;;;-0.12;56.50;102201.34;1724905;83;21601;-79
2022/03/23 00:55:23;;;;;;;51.77;27.67;;;;;;;-0.16;56.63;102201.20;1725343;83;20989;-78
2022/03/23 00:57:51;;;;;;;48.50;27.00;;;;;;;-0.14;57.00;102199.53;1725009;83;21079;-77
2022/03/23 01:00:20;;;;;;;56.63;29.70;;;;;;;-0.18;56.88;102197.27;1725273;83;21081;-78
2022/03/23 01:02:49;;;;;;;50.40;27.40;;;;;;;-0.17;57.30;102192.98;1724948;83;21725;-78
2022/03/23 01:05:17;;;;;;;49.93;28.00;;;;;;;-0.07;58.12;102190.79;1725211;83;21001;-78
2022/03/23 01:07:44;;;;;;;52.20;27.43;;;;;;;0.06;58.00;102188.66;1725411;82;21000;-77
2022/03/23 01:10:14;;;;;;;45.13;25.37;;;;;;;0.14;58.04;102189.77;1726582;83;21462;-77
2022/03/23 01:12:44;;;;;;;40.05;23.07;;;;;;;0.19;58.46;102184.36;1726755;83;21106;-77
2022/03/23 01:15:23;;;;;;;40.73;23.53;;;;;;;0.22;58.96;102183.17;1726674;83;21130;-78
2022/03/23 01:17:50;;;;;;;43.93;23.83;;;;;;;0.23;59.33;102187.95;1726402;83;21252;-78
2022/03/23 01:20:19;;;;;;;36.87;21.13;;;;;;;0.24;59.42;102186.69;1726278;82;21011;-78
2022/03/23 01:22:50;;;;;;;34.88;21.20;;;;;;;0.23;59.58;102181.08;1726787;83;21012;-78
2022/03/23 01:25:18;;;;;;;38.93;20.53;;;;;;;0.25;59.69;102178.53;1726631;83;21035;-77
2022/03/23 01:27:47;;;;;;;35.23;19.73;;;;;;;0.26;59.65;102184.17;1726884;83;21115;-77
2022/03/23 01:30:16;;;;;;;35.50;19.13;;;;;;;0.29;59.70;102185.56;1726482;83;21028;-75
2022/03/23 01:32:45;;;;;;;34.33;18.40;;;;;;;0.29;59.71;102181.70;1726756;83;21016;-78
2022/03/23 01:35:13;;;;;;;35.83;19.80;;;;;;;0.25;59.61;102178.15;1726580;83;21043;-77
2022/03/23 01:37:42;;;;;;;33.40;18.80;;;;;;;0.24;59.68;102174.22;1726896;83;21055;-78
2022/03/23 01:40:12;;;;;;;33.87;18.40;;;;;;;0.21;59.68;102177.14;1726512;83;21123;-78
2022/03/23 01:42:40;;;;;;;34.57;19.47;;;;;;;0.21;59.53;102180.14;1726450;83;21020;-75
2022/03/23 01:45:09;;;;;;;32.07;18.27;;;;;;;0.15;59.32;102176.94;1726534;83;21019;-77
2022/03/23 01:47:37;;;;;;;30.67;18.37;;;;;;;0.05;59.33;102172.28;1726659;83;21014;-76
2022/03/23 01:50:07;;;;;;;33.80;18.93;;;;;;;0.01;59.41;102180.75;1726561;82;21008;-77
2022/03/23 01:52:35;;;;;;;31.42;18.23;;;;;;;-0.08;59.20;102180.03;1727180;83;22160;-76
2022/03/23 01:55:07;;;;;;;35.00;18.27;;;;;;;-0.16;59.23;102179.30;1726451;83;20965;-78
2022/03/23 01:57:36;;;;;;;34.60;19.23;;;;;;;-0.23;59.20;102176.48;1726905;83;21008;-78
2022/03/23 02:00:07;;;;;;;31.07;18.27;;;;;;;-0.30;59.33;102177.09;1726548;82;21059;-79
2022/03/23 02:02:36;;;;;;;38.53;21.17;;;;;;;-0.34;59.35;102178.20;1723564;82;21027;-78
2022/03/23 02:05:05;;;;;;;34.73;19.00;;;;;;;-0.42;59.56;102165.46;1726594;82;21111;-75
2022/03/23 02:07:32;;;;;;;35.80;19.43;;;;;;;-0.45;59.48;102165.81;1726455;82;20972;-77
2022/03/23 02:10:01;;;;;;;36.73;21.30;;;;;;;-0.51;59.35;102164.30;1726477;82;21056;-76
2022/03/23 02:12:31;;;;;;;40.87;22.53;;;;;;;-0.58;59.27;102160.16;1724387;82;21031;-75
2022/03/23 02:15:02;;;;;;;40.63;21.60;;;;;;;-0.65;59.32;102159.06;1726806;82;21032;-75
2022/03/23 02:17:30;;;;;;;37.00;21.57;;;;;;;-0.68;59.49;102161.53;1708830;83;21301;-77
2022/03/23 02:19:57;;;;;;;41.83;23.60;;;;;;;-0.75;59.34;102151.80;1726773;83;21004;-76
2022/03/23 02:22:25;;;;;;;56.40;31.20;;;;;;;-0.72;59.88;102151.91;1726592;83;21031;-77
2022/03/23 02:24:55;;;;;;;56.53;31.43;;;;;;;-0.66;59.88;102153.88;1726867;82;20986;-75
2022/03/23 02:27:23;;;;;;;60.10;33.33;;;;;;;-0.69;59.88;102150.36;1726663;82;20976;-76
2022/03/23 02:29:53;;;;;;;64.33;34.47;;;;;;;-0.63;60.04;102155.27;1726797;83;21750;-76
2022/03/23 02:32:21;;;;;;;54.70;34.55;;;;;;;-0.59;60.21;102147.69;1726524;82;20961;-75
2022/03/23 02:34:48;;;;;;;57.87;35.20;;;;;;;-0.54;60.26;102149.16;1726685;83;21040;-79
2022/03/23 02:37:16;;;;;;;49.07;26.57;;;;;;;-0.49;60.37;102146.34;1726599;82;21051;-74
2022/03/23 02:39:43;;;;;;;50.73;27.77;;;;;;;-0.44;60.20;102144.81;1726868;82;21083;-73
2022/03/23 02:42:10;;;;;;;48.93;27.17;;;;;;;-0.44;60.20;102142.23;1726684;83;21933;-76
2022/03/23 02:44:39;;;;;;;45.87;25.70;;;;;;;-0.43;60.21;102140.11;1726602;82;21000;-79
2022/03/23 02:47:07;;;;;;;43.93;24.67;;;;;;;-0.39;60.25;102143.25;1726691;83;21040;-80
2022/03/23 02:49:35;;;;;;;49.57;26.20;;;;;;;-0.38;60.29;102136.42;1726968;83;20997;-79
2022/03/23 02:52:02;;;;;;;39.93;25.00;;;;;;;-0.37;60.35;102140.74;1726863;83;21000;-76
2022/03/23 03:03:47;;;;;;;43.27;24.30;;;;;;;-0.37;60.43;102143.32;1726746;83;21028;-78
2022/03/23 03:06:15;;;;;;;48.70;25.27;;;;;;;-0.43;60.39;102142.69;1726929;83;21000;-74
2022/03/23 03:08:48;;;;;;;45.37;23.90;;;;;;;-0.46;60.35;102146.45;1722916;83;21474;-73
2022/03/23 03:11:19;;;;;;;40.40;22.27;;;;;;;-0.49;60.25;102143.77;1727459;83;21038;-76
2022/03/23 03:13:49;;;;;;;44.53;24.43;;;;;;;-0.50;60.37;102141.98;1727233;83;21520;-78
2022/03/23 03:16:18;;;;;;;38.45;20.27;;;;;;;-0.54;60.31;102153.02;1727306;83;21473;-77
2022/03/23 03:18:49;;;;;;;55.20;27.53;;;;;;;-0.58;60.63;102145.60;1727336;83;21066;-76
2022/03/23 03:21:18;;;;;;;63.57;29.10;;;;;;;-0.52;60.67;102147.11;1727162;83;21995;-78
2022/03/23 03:23:47;;;;;;;90.60;34.43;;;;;;;-0.50;60.70;102147.14;1727379;83;21019;-77
2022/03/23 03:26:17;;;;;;;108.07;38.30;;;;;;;-0.50;60.52;102149.72;1727151;83;21504;-74
2022/03/23 03:28:45;;;;;;;116.25;43.05;;;;;;;-0.54;60.64;102144.88;1727588;83;21420;-76
2022/03/23 03:31:15;;;;;;;122.33;46.80;;;;;;;-0.53;60.77;102149.61;1727150;83;21018;-77
2022/03/23 03:33:43;;;;;;;130.03;48.73;;;;;;;-0.52;60.64;102153.55;1727549;83;21106;-78
2022/03/23 03:36:12;;;;;;;139.80;51.77;;;;;;;-0.54;60.67;102141.43;1727085;83;21046;-77
2022/03/23 03:38:41;;;;;;;154.27;57.10;;;;;;;-0.58;60.57;102149.84;1727459;83;21523;-77
2022/03/23 03:41:09;;;;;;;149.27;56.70;;;;;;;-0.65;60.49;102149.17;1727241;83;21061;-77
2022/03/23 03:43:37;;;;;;;133.67;51.93;;;;;;;-0.71;60.63;102148.54;1727407;83;21050;-77
2022/03/23 03:46:10;;;;;;;145.80;57.43;;;;;;;-0.74;60.74;102145.44;1727218;83;21188;-77
2022/03/23 03:48:35;;;;;;;98.30;44.93;;;;;;;-0.78;60.59;102148.70;1726228;83;21504;-76
2022/03/23 03:51:06;;;;;;;76.37;37.07;;;;;;;-0.83;60.71;102146.39;1727417;83;21465;-77
2022/03/23 03:53:34;;;;;;;59.88;31.70;;;;;;;-0.79;60.99;102147.38;1727623;83;20991;-78
2022/03/23 03:56:01;;;;;;;61.33;33.63;;;;;;;-0.80;60.90;102152.94;1727253;83;21110;-76
2022/03/23 03:58:28;;;;;;;66.10;32.37;;;;;;;-0.82;60.85;102152.41;1727463;83;21090;-77
2022/03/23 04:00:56;;;;;;;61.87;33.07;;;;;;;-0.90;60.73;102146.97;1727139;83;21022;-75
2022/03/23 04:03:26;;;;;;;60.23;31.57;;;;;;;-0.97;60.68;102153.98;1727394;83;21002;-78
2022/03/23 04:05:53;;;;;;;56.60;29.90;;;;;;;-1.03;60.81;102151.17;1727380;83;21066;-74
2022/03/23 04:08:20;;;;;;;51.03;28.17;;;;;;;-1.09;60.76;102152.23;1727118;82;21050;-77
2022/03/23 04:10:47;;;;;;;47.07;27.03;;;;;;;-1.08;61.03;102157.84;1726327;83;21112;-77
2022/03/23 04:13:15;;;;;;;49.33;27.20;;;;;;;-1.12;61.08;102156.44;1726364;82;20940;-76
2022/03/23 04:15:43;;;;;;;49.40;26.63;;;;;;;-1.15;61.13;102160.18;1726412;83;21012;-78
2022/03/23 04:18:10;;;;;;;52.17;25.93;;;;;;;-1.17;61.10;102155.79;1726363;83;21000;-76
2022/03/23 04:20:38;;;;;;;45.83;25.93;;;;;;;-1.22;61.02;102154.34;1726428;83;21036;-77
2022/03/23 04:23:05;;;;;;;45.93;25.30;;;;;;;-1.28;61.09;102158.34;1726519;82;21136;-78
2022/03/23 04:25:32;;;;;;;45.63;25.27;;;;;;;-1.32;61.00;102158.65;1726620;83;21474;-77
2022/03/23 04:27:59;;;;;;;47.23;25.00;;;;;;;-1.37;61.15;102158.87;1726303;83;21020;-78
2022/03/23 04:30:31;;;;;;;43.73;25.23;;;;;;;-1.40;61.29;102158.75;1726691;82;21067;-77
2022/03/23 04:33:00;;;;;;;43.00;25.13;;;;;;;-1.40;61.50;102164.77;1726362;83;21016;-78
2022/03/23 04:35:28;;;;;;;49.30;26.60;;;;;;;-1.41;61.40;102162.16;1726626;83;21807;-78
2022/03/23 04:37:55;;;;;;;46.87;25.27;;;;;;;-1.44;61.43;102165.47;1726265;83;21398;-78
2022/03/23 04:40:24;;;;;;;44.27;25.53;;;;;;;-1.44;61.55;102162.00;1726442;82;20912;-76
2022/03/23 04:42:51;;;;;;;43.47;24.53;;;;;;;-1.48;61.45;102163.58;1726555;83;21519;-78
2022/03/23 04:45:19;;;;;;;49.23;27.67;;;;;;;-1.54;61.40;102159.89;1726604;82;20981;-77
2022/03/23 04:47:46;;;;;;;50.70;27.53;;;;;;;-1.57;61.55;102165.79;1726313;83;21135;-77
2022/03/23 04:50:14;;;;;;;50.17;27.27;;;;;;;-1.62;61.61;102160.86;1726594;83;21046;-77
2022/03/23 04:52:44;;;;;;;46.77;26.87;;;;;;;-1.63;61.73;102161.69;1726573;83;21027;-76
2022/03/23 04:55:14;;;;;;;45.98;24.98;;;;;;;-1.67;61.74;102167.09;1726425;83;21079;-80
2022/03/23 04:57:42;;;;;;;49.63;26.57;;;;;;;-1.67;61.97;102168.38;1726797;83;21095;-80
2022/03/23 05:00:13;;;;;;;48.50;26.30;;;;;;;-1.65;62.18;102164.18;1726280;83;21293;-79
2022/03/23 05:02:42;;;;;;;45.63;25.93;;;;;;;-1.65;62.09;102162.89;1726472;82;21564;-79
2022/03/23 05:05:12;;;;;;;44.57;25.17;;;;;;;-1.65;62.27;102162.89;1726090;83;21528;-75
2022/03/23 05:07:40;;;;;;;47.33;25.43;;;;;;;-1.65;62.23;102168.03;1726351;83;21675;-74
2022/03/23 05:10:10;;;;;;;46.47;26.73;;;;;;;-1.65;62.34;102167.16;1726840;81;21044;-75
2022/03/23 05:12:38;;;;;;;45.13;26.40;;;;;;;-1.66;62.52;102170.56;1729376;82;21850;-74
2022/03/23 05:15:08;;;;;;;48.30;26.87;;;;;;;-1.65;62.40;102164.59;1749114;81;21005;-75
2022/03/23 05:17:36;;;;;;;47.20;27.00;;;;;;;-1.67;62.54;102160.66;1724507;81;21532;-74
2022/03/23 05:20:06;;;;;;;51.13;27.80;;;;;;;-1.64;62.70;102163.35;1741994;82;20921;-74
2022/03/23 05:22:33;;;;;;;51.40;27.77;;;;;;;-1.58;62.92;102165.30;1738314;82;21588;-75
2022/03/23 05:25:01;;;;;;;48.70;27.97;;;;;;;-1.55;62.97;102161.97;1741461;82;21128;-73
2022/03/23 05:27:30;;;;;;;54.63;28.93;;;;;;;-1.52;63.07;102164.28;1739585;82;21070;-75
2022/03/23 05:29:57;;;;;;;44.07;25.63;;;;;;;-1.49;63.19;102164.41;1732525;82;21024;-76
2022/03/23 05:32:24;;;;;;;54.37;29.40;;;;;;;-1.45;63.21;102157.27;1732088;82;21028;-74
2022/03/23 05:34:50;;;;;;;53.33;30.57;;;;;;;-1.36;63.45;102158.94;1732305;82;21020;-75
2022/03/23 05:37:18;;;;;;;58.33;32.03;;;;;;;-1.31;63.51;102157.81;1731884;82;21037;-77
2022/03/23 05:39:46;;;;;;;54.27;28.77;;;;;;;-1.26;63.48;102163.16;1732271;82;21008;-75
2022/03/23 05:42:14;;;;;;;51.60;29.57;;;;;;;-1.22;63.49;102164.63;1732151;82;32558;-74
2022/03/23 05:44:41;;;;;;;53.23;29.33;;;;;;;-1.18;63.55;102162.63;1732158;82;21009;-74
2022/03/23 05:47:08;;;;;;;62.90;30.87;;;;;;;-1.13;63.65;102163.70;1732686;82;21155;-75
2022/03/23 05:49:35;;;;;;;59.47;30.30;;;;;;;-1.04;63.77;102161.02;1745706;82;21149;-76
2022/03/23 05:52:02;;;;;;;55.33;31.43;;;;;;;-0.96;63.85;102154.05;1733334;82;20990;-77
2022/03/23 05:54:29;;;;;;;56.63;31.30;;;;;;;-0.84;63.90;102154.05;1733365;82;21033;-75
2022/03/23 05:56:56;;;;;;;56.30;30.10;;;;;;;-0.74;63.94;102158.31;1724683;83;21461;-75
2022/03/23 05:59:24;;;;;;;57.13;30.30;;;;;;;-0.63;63.97;102157.84;1755381;81;21024;-74
2022/03/23 06:01:51;;;;;;;58.53;31.50;;;;;;;-0.55;64.00;102156.02;1754866;81;21041;-75
2022/03/23 06:04:17;;;;;;;54.07;31.17;;;;;;;-0.45;64.14;102159.36;1754952;81;20997;-75
2022/03/23 06:06:44;;;;;;;56.17;31.03;;;;;;;-0.33;64.08;102156.38;1754808;81;21966;-75
2022/03/23 06:09:12;;;;;;;61.77;31.10;;;;;;;-0.21;64.09;102153.77;1755699;81;21002;-76
2022/03/23 06:11:40;;;;;;;65.30;33.07;;;;;;;-0.10;63.95;102155.02;1761892;81;21532;-75
2022/03/23 06:14:07;;;;;;;56.40;32.03;;;;;;;0.03;63.97;102149.85;1762193;81;21101;-75
2022/03/23 06:16:34;;;;;;;60.53;31.53;;;;;;;0.14;63.93;102146.84;1762024;81;20981;-75
2022/03/23 06:19:01;;;;;;;59.43;33.77;;;;;;;0.25;63.87;102148.48;1762252;81;21068;-75
2022/03/23 06:21:30;;;;;;;59.87;32.27;;;;;;;0.37;63.86;102150.59;1761976;81;21002;-74
2022/03/23 06:23:57;;;;;;;60.60;33.53;;;;;;;0.46;63.83;102147.00;1769000;80;21255;-75
2022/03/23 06:26:24;;;;;;;55.93;33.03;;;;;;;0.59;63.71;102145.29;1753067;81;21818;-75
2022/03/23 06:28:51;;;;;;;60.80;33.50;;;;;;;0.72;63.71;102143.08;1761802;81;21000;-75
2022/03/23 06:31:20;;;;;;;60.77;33.67;;;;;;;0.85;63.60;102143.93;1761802;81;21025;-75
2022/03/23 06:33:49;;;;;;;58.67;33.50;;;;;;;1.02;63.58;102144.44;1760348;81;21068;-76
2022/03/23 06:36:16;;;;;;;63.33;34.93;;;;;;;1.17;63.57;102139.74;1760459;81;21004;-75
2022/03/23 06:38:43;;;;;;;62.33;34.73;;;;;;;1.30;63.55;102144.83;1760287;81;21796;-74
2022/03/23 06:41:10;;;;;;;58.83;32.90;;;;;;;1.44;63.69;102146.13;1760158;81;20977;-74
2022/03/23 06:43:38;;;;;;;61.13;34.50;;;;;;;1.62;63.77;102142.30;1760461;81;21498;-76
2022/03/23 06:46:05;;;;;;;60.83;34.90;;;;;;;1.78;63.84;102145.34;1760766;81;21084;-76
2022/03/23 06:48:31;;;;;;;56.83;32.47;;;;;;;1.96;63.67;102147.52;1760533;81;21465;-74
2022/03/23 06:50:59;;;;;;;61.03;34.07;;;;;;;2.11;63.50;102143.61;1762152;81;22191;-74
2022/03/23 06:53:26;;;;;;;56.57;32.37;;;;;;;2.26;63.35;102149.16;1761893;81;20957;-74
2022/03/23 06:55:52;;;;;;;62.90;35.13;;;;;;;2.44;63.43;102146.17;1762298;81;21028;-75
2022/03/23 06:58:21;;;;;;;69.83;39.90;;;;;;;2.62;63.42;102141.41;1761922;81;20967;-75
2022/03/23 07:00:48;;;;;;;60.93;36.43;;;;;;;2.79;63.29;102140.92;1762452;81;20988;-75
2022/03/23 07:03:15;;;;;;;64.03;37.60;;;;;;;3.00;63.32;102137.53;1761903;81;21192;-75
2022/03/23 07:05:42;;;;;;;57.97;35.60;;;;;;;3.20;63.06;102140.97;1759837;81;20980;-75
2022/03/23 07:10:54;;;;;;;58.67;35.97;;;;;;;3.55;63.19;102132.63;1754239;80;20990;-76
2022/03/23 07:13:21;;;;;;;58.13;33.67;;;;;;;3.75;63.04;102137.76;1754810;81;21490;-75
2022/03/23 07:15:48;;;;;;;58.90;33.73;;;;;;;3.93;62.85;102132.02;1754660;81;21133;-75
2022/03/23 07:18:15;;;;;;;58.63;34.97;;;;;;;4.11;62.46;102127.59;1754626;81;21005;-75
2022/03/23 07:20:43;;;;;;;61.40;35.90;;;;;;;4.29;62.22;102130.91;1748529;80;21012;-76
2022/03/23 07:23:10;;;;;;;57.37;35.93;;;;;;;4.52;62.01;102131.70;1754854;81;20982;-75
2022/03/23 07:25:37;;;;;;;58.63;35.43;;;;;;;4.73;61.76;102133.33;1726976;81;21023;-76
2022/03/23 07:28:04;;;;;;;53.43;33.87;;;;;;;4.92;61.38;102126.69;1716064;83;21212;-75
2022/03/23 07:30:36;;;;;;;57.03;35.60;;;;;;;5.10;61.19;102129.55;1710272;83;21073;-74
2022/03/23 07:33:04;;;;;;;58.50;34.20;;;;;;;5.25;60.95;102123.66;1710394;83;21029;-76
2022/03/23 07:35:31;;;;;;;52.00;33.83;;;;;;;5.46;60.58;102120.86;1710469;83;20995;-77
2022/03/23 07:37:58;;;;;;;55.20;33.23;;;;;;;5.64;60.18;102124.98;1721307;83;21024;-77
2022/03/23 07:40:25;;;;;;;56.43;33.80;;;;;;;5.87;59.83;102126.51;1721143;83;22032;-78
2022/03/23 07:42:52;;;;;;;62.33;34.23;;;;;;;6.09;59.55;102122.84;1721334;83;21030;-77
2022/03/23 07:45:19;;;;;;;61.10;35.17;;;;;;;6.29;59.22;102122.61;1721213;83;21068;-76
2022/03/23 07:47:46;;;;;;;57.70;33.70;;;;;;;6.49;58.95;102118.85;1721396;83;21013;-77
2022/03/23 07:50:12;;;;;;;59.00;35.17;;;;;;;6.72;58.76;102117.70;1721085;83;21028;-75
2022/03/23 07:52:39;;;;;;;55.20;33.90;;;;;;;6.96;58.34;102120.03;1721368;83;21175;-75
2022/03/23 07:55:07;;;;;;;53.13;34.83;;;;;;;7.19;57.97;102116.22;1721038;83;20996;-74
2022/03/23 07:57:34;;;;;;;54.13;33.53;;;;;;;7.38;57.54;102122.81;1721432;83;20978;-73
2022/03/23 08:00:02;;;;;;;54.57;32.70;;;;;;;7.55;57.06;102125.48;1721147;83;21554;-73
2022/03/23 08:02:31;;;;;;;50.43;31.60;;;;;;;7.71;56.78;102126.40;1719945;83;21040;-73
2022/03/23 08:04:59;;;;;;;52.20;30.80;;;;;;;7.90;56.45;102125.11;1721097;83;21160;-73
2022/03/23 08:07:26;;;;;;;51.77;31.43;;;;;;;8.06;56.05;102125.58;1721335;83;20998;-74
2022/03/23 08:09:53;;;;;;;49.63;32.00;;;;;;;8.27;55.71;102123.42;1720135;83;21527;-73
2022/03/23 08:12:20;;;;;;;49.40;31.43;;;;;;;8.50;55.26;102119.52;1707368;83;21019;-74
2022/03/23 08:14:46;;;;;;;51.77;32.33;;;;;;;8.74;54.75;102121.23;1724496;83;21034;-73
2022/03/23 08:17:14;;;;;;;48.27;30.30;;;;;;;8.94;54.21;102121.19;1724103;83;21217;-72
2022/03/23 08:19:41;;;;;;;47.57;31.37;;;;;;;9.13;53.87;102115.46;1724213;83;21522;-74
2022/03/23 08:22:09;;;;;;;46.43;31.20;;;;;;;9.34;53.55;102111.45;1724198;83;21018;-74
2022/03/23 08:24:36;;;;;;;44.93;28.40;;;;;;;9.54;53.13;102110.48;1724705;83;21004;-74
2022/03/23 08:27:04;;;;;;;50.93;29.53;;;;;;;9.77;52.89;102106.41;1724497;83;21043;-76
2022/03/23 08:29:31;;;;;;;46.40;29.23;;;;;;;10.00;52.39;102106.25;1724521;83;21789;-73
2022/03/23 08:31:58;;;;;;;41.40;27.70;;;;;;;10.20;52.00;102103.50;1724374;83;21036;-73
2022/03/23 08:34:26;;;;;;;40.00;26.47;;;;;;;10.43;51.42;102108.12;1724400;83;21447;-73
2022/03/23 08:36:53;;;;;;;40.93;26.30;;;;;;;10.64;50.91;102109.68;1724453;83;21034;-73
2022/03/23 08:39:20;;;;;;;37.17;26.27;;;;;;;10.88;50.46;102108.53;1724475;83;21618;-73
2022/03/23 08:41:47;;;;;;;41.83;27.87;;;;;;;11.13;50.02;102106.49;1724557;83;21777;-73
2022/03/23 08:44:14;;;;;;;42.67;26.77;;;;;;;11.35;49.52;102098.36;1724451;83;20988;-73
2022/03/23 08:46:41;;;;;;;42.20;26.83;;;;;;;11.58;48.95;102100.24;1724509;83;21047;-73
2022/03/23 08:49:08;;;;;;;39.27;26.27;;;;;;;11.77;48.60;102096.02;1724435;83;21092;-73
2022/03/23 08:51:35;;;;;;;40.43;26.60;;;;;;;12.00;48.25;102092.64;1724440;83;21024;-77
2022/03/23 08:54:03;;;;;;;37.70;26.10;;;;;;;12.24;47.99;102090.48;1724514;83;21179;-72
2022/03/23 08:56:30;;;;;;;40.87;26.53;;;;;;;12.46;47.52;102093.61;1738629;81;21273;-75
2022/03/23 08:58:57;;;;;;;37.20;26.30;;;;;;;12.67;47.12;102093.22;1723537;81;20928;-74
2022/03/23 09:01:24;;;;;;;35.47;25.93;;;;;;;12.87;46.48;102091.52;1722454;83;20989;-74
2022/03/23 09:03:53;;;;;;;37.78;25.12;;;;;;;13.03;46.05;102095.18;1722254;83;21017;-76
2022/03/23 09:06:20;;;;;;;34.37;23.90;;;;;;;13.21;45.56;102089.97;1722478;83;21065;-73
2022/03/23 09:08:47;;;;;;;37.78;25.32;;;;;;;13.37;44.97;102083.06;1722052;83;21019;-74
2022/03/23 09:11:14;;;;;;;32.43;24.27;;;;;;;13.54;44.63;102087.09;1728307;80;21005;-74
2022/03/23 09:13:44;;;;;;;34.15;23.20;;;;;;;13.71;44.13;102082.30;1734618;82;21075;-73
2022/03/23 09:16:10;;;;;;;32.35;23.77;;;;;;;13.90;43.78;102090.64;1735058;82;21064;-73
2022/03/23 09:18:37;;;;;;;33.18;22.35;;;;;;;14.06;43.17;102082.77;1749009;81;21947;-75
2022/03/23 09:21:04;;;;;;;29.18;21.20;;;;;;;14.18;42.60;102078.09;1763584;80;21024;-74
2022/03/23 09:23:31;;;;;;;27.50;19.10;;;;;;;14.29;42.11;102076.91;1763328;80;21533;-74
2022/03/23 09:26:01;;;;;;;28.25;19.73;;;;;;;14.44;41.60;102065.57;1763464;81;20890;-74
2022/03/23 09:28:27;;;;;;;27.07;19.52;;;;;;;14.62;41.28;102068.19;1763627;80;21016;-74
2022/03/23 09:30:54;;;;;;;23.92;18.02;;;;;;;14.85;40.96;102062.25;1766123;79;21068;-73
2022/03/23 09:33:22;;;;;;;24.67;17.80;;;;;;;15.08;40.42;102062.94;1758942;79;20967;-73
2022/03/23 09:35:49;;;;;;;25.40;17.90;;;;;;;15.28;39.96;102059.23;1759723;81;21513;-73
2022/03/23 09:38:16;;;;;;;27.90;17.98;;;;;;;15.44;39.48;102052.17;1758869;81;21013;-73
2022/03/23 09:40:47;;;;;;;23.05;17.82;;;;;;;15.61;39.38;102049.86;1735938;81;21027;-73
2022/03/23 09:43:15;;;;;;;23.27;17.65;;;;;;;15.87;38.94;102048.17;1734629;82;22140;-75
2022/03/23 09:48:16;;;;;;;23.27;17.02;;;;;;;16.24;38.08;102039.88;1734941;82;21031;-73
2022/03/23 09:50:47;;;;;;;26.12;18.62;;;;;;;16.36;37.61;102042.09;1734569;82;21008;-75
2022/03/23 09:53:15;;;;;;;23.40;17.85;;;;;;;16.53;37.33;102037.98;1734896;82;21429;-73
2022/03/23 09:55:44;;;;;;;23.38;17.12;;;;;;;16.81;37.12;102031.25;1734506;82;21126;-75
2022/03/23 09:58:12;;;;;;;22.00;17.02;;;;;;;17.01;36.64;102031.35;1733851;82;21495;-75
2022/03/23 10:00:44;;;;;;;22.25;16.55;;;;;;;17.23;36.38;102022.12;1734693;82;21556;-76
2022/03/23 10:03:52;;;;;;;21.50;15.50;;;;;;;17.54;36.37;102025.77;1704069;84;21027;-74
2022/03/23 10:06:34;;;;;;;19.12;15.25;;;;;;;17.84;35.51;102007.73;1734472;82;21043;-76
2022/03/23 10:09:40;;;;;;;16.45;14.20;;;;;;;18.26;35.17;102009.52;1734779;82;21181;-77
2022/03/23 10:12:46;;;;;;;19.23;15.10;;;;;;;18.57;34.77;102004.61;1721242;82;21020;-76
2022/03/23 10:15:41;;;;;;;21.62;15.28;;;;;;;18.97;34.28;102009.47;1694029;83;21080;-75
2022/03/23 10:18:41;;;;;;;19.80;15.72;;;;;;;19.29;33.88;102002.64;1716147;82;21002;-76
2022/03/23 10:21:08;;;;;;;21.90;17.60;;;;;;;19.54;33.51;101995.66;1714295;83;21089;-76
2022/03/23 10:23:36;;;;;;;19.80;15.48;;;;;;;19.88;32.99;101997.52;1716892;82;21770;-77
2022/03/23 10:26:14;;;;;;;17.48;13.68;;;;;;;20.16;32.75;101993.44;1716044;83;20990;-77
2022/03/23 10:28:41;;;;;;;17.07;13.03;;;;;;;20.42;32.34;101988.06;1715690;83;21036;-74
2022/03/23 10:31:17;;;;;;;15.78;12.60;;;;;;;20.70;31.81;101988.80;1716167;83;21021;-76
2022/03/23 10:33:46;;;;;;;16.70;12.90;;;;;;;20.95;31.16;101983.01;1715583;83;21001;-76
2022/03/23 10:36:13;;;;;;;;;;;;;;;21.07;30.78;101979.64;1717040;83;21938;-77
2022/03/23 10:38:41;;;;;;;17.37;11.38;;;;;;;21.30;29.74;101973.48;1715784;83;20157;-77
2022/03/23 10:41:14;;;;;;;15.05;11.95;;;;;;;21.53;30.05;101978.84;1716163;83;21053;-76
2022/03/23 10:43:41;;;;;;;12.73;10.63;;;;;;;21.80;29.67;101973.22;1714026;83;21021;-76
2022/03/23 10:46:13;;;;;;;12.68;10.28;;;;;;;22.01;29.34;101968.42;1716147;83;21684;-75
2022/03/23 10:48:59;;;;;;;18.12;10.88;;;;;;;22.33;29.18;101968.28;1716125;82;21128;-76
2022/03/23 10:51:33;;;;;;;15.50;11.50;;;;;;;22.61;28.69;101966.56;1715692;83;21546;-76
2022/03/23 10:54:23;;;;;;;17.85;10.40;;;;;;;22.77;27.76;101966.46;1716000;83;20997;-76
2022/03/23 10:56:50;;;;;;;13.18;10.72;;;;;;;22.86;27.45;101957.84;1716219;83;21009;-75
2022/03/23 10:59:25;;;;;;;13.95;10.40;;;;;;;23.06;27.02;101959.29;1716013;83;21044;-76
2022/03/23 11:02:03;;;;;;;12.95;10.88;;;;;;;23.13;26.61;101962.77;1716378;83;21275;-76
2022/03/23 11:04:37;;;;;;;14.60;9.88;;;;;;;23.29;26.41;101957.28;1716033;83;21025;-77
2022/03/23 11:07:07;;;;;;;12.82;10.05;;;;;;;23.66;26.23;101949.95;1689035;83;21029;-78
2022/03/23 11:18:14;;;;;;;12.18;9.93;;;;;;;24.52;25.61;101937.33;1732358;82;20988;-76
2022/03/23 11:20:57;;;;;;;15.72;9.70;;;;;;;24.80;25.05;101929.48;1731882;82;21063;-75
2022/03/23 11:23:33;;;;;;;11.50;10.18;;;;;;;24.90;24.58;101929.20;1731969;82;21537;-77
2022/03/23 11:26:10;;;;;;;12.45;9.80;;;;;;;24.98;24.09;101921.93;1731849;82;21269;-75
2022/03/23 11:28:44;;;;;;;11.25;9.60;;;;;;;24.93;23.73;101919.58;1731777;82;21111;-77
2022/03/23 11:31:16;;;;;;;10.63;8.88;;;;;;;24.83;23.57;101911.37;1731739;82;21032;-77
2022/03/23 11:33:52;;;;;;;11.95;9.40;;;;;;;24.99;23.44;101916.44;1731802;82;21122;-77
2022/03/23 11:36:22;;;;;;;13.32;9.63;;;;;;;25.18;23.46;101901.20;1731869;82;21055;-75
2022/03/23 11:38:51;;;;;;;13.83;9.70;;;;;;;25.28;22.96;101904.91;1731769;82;21012;-74
2022/03/23 11:41:19;;;;;;;;;;;;;;;25.45;22.94;101894.23;1734474;82;21180;-76
2022/03/23 11:43:46;;;;;;;12.18;9.38;;;;;;;25.67;22.29;101897.97;1731639;82;20173;-75